Time;durP1;ratioP1;P1;durP2;ratioP2;P2;SDS_P1;SDS_P2;PMS_P1;PMS_P2;Temp;Humidity;BMP_temperature;BMP_pressure;BME280_temperature;BME280_humidity;BME280_pressure;Samples;Min_cycle;Max_cycle;Signal;HPM_P1;HPM_P2
2023/11/28 00:01:40;;;;;;;8.07;2.50;;;;;;;2.64;95.70;98625.25;6162418;28;20058;-75
2023/11/28 00:04:41;;;;;;;2.83;2.17;;;;;;;2.72;95.29;98632.56;6169833;28;20086;-75
2023/11/28 00:07:42;;;;;;;3.70;2.15;;;;;;;2.92;94.70;98636.69;6162761;28;20118;-75
2023/11/28 00:10:43;;;;;;;5.03;2.40;;;;;;;2.84;94.87;98634.50;6165960;28;20047;-75
2023/11/28 00:13:43;;;;;;;5.45;2.33;;;;;;;2.86;94.69;98639.59;6168295;28;20509;-76
2023/11/28 00:16:47;;;;;;;4.85;2.95;;;;;;;2.92;94.55;98641.84;6168323;28;20046;-75
2023/11/28 00:19:48;;;;;;;5.63;2.55;;;;;;;2.93;95.05;98652.09;6172572;28;20051;-75
2023/11/28 00:22:49;;;;;;;3.70;2.03;;;;;;;2.67;95.81;98650.03;6170160;28;20732;-73
2023/11/28 00:25:52;;;;;;;2.92;2.13;;;;;;;2.78;96.42;98648.56;6171784;28;20054;-73
2023/11/28 00:28:53;;;;;;;3.80;2.63;;;;;;;2.76;96.69;98644.38;6163914;28;20043;-74
2023/11/28 00:31:54;;;;;;;5.75;2.42;;;;;;;2.78;96.79;98630.53;6182118;28;20134;-72
2023/11/28 00:34:55;;;;;;;4.60;2.88;;;;;;;2.97;97.41;98640.72;6169433;28;20054;-73
2023/11/28 00:37:57;;;;;;;6.03;2.95;;;;;;;2.99;97.31;98635.47;6165590;28;20418;-72
2023/11/28 00:40:58;;;;;;;8.50;2.97;;;;;;;2.77;98.21;98628.84;6173088;28;20079;-75
2023/11/28 00:44:05;;;;;;;5.57;2.58;;;;;;;2.73;99.08;98611.91;6166424;28;20083;-72
2023/11/28 00:47:09;;;;;;;4.72;2.85;;;;;;;2.77;99.36;98610.81;6173398;28;20133;-72
2023/11/28 00:50:10;;;;;;;3.13;2.40;;;;;;;2.82;99.75;98601.13;6173271;28;20145;-72
2023/11/28 00:53:11;;;;;;;5.55;2.60;;;;;;;2.61;100.00;98594.50;6169281;28;20078;-72
2023/11/28 00:56:19;;;;;;;3.03;1.88;;;;;;;2.67;100.00;98594.19;6163675;28;20074;-76
2023/11/28 00:59:20;;;;;;;3.63;1.95;;;;;;;2.73;100.00;98593.88;6162653;28;20038;-73
2023/11/28 01:02:23;;;;;;;2.75;1.88;;;;;;;2.67;100.00;98576.16;6174885;28;20101;-76
2023/11/28 01:05:24;;;;;;;3.25;2.25;;;;;;;2.78;100.00;98581.59;6176911;28;20058;-76
2023/11/28 01:08:25;;;;;;;4.80;2.53;;;;;;;2.74;100.00;98574.09;6162793;28;20067;-76
2023/11/28 01:11:26;;;;;;;6.47;2.83;;;;;;;2.74;100.00;98556.91;6156048;28;20143;-76
2023/11/28 01:14:28;;;;;;;3.90;2.50;;;;;;;2.77;100.00;98549.00;6173864;28;20061;-76
2023/11/28 01:17:31;;;;;;;5.43;2.45;;;;;;;2.80;100.00;98542.84;6176379;28;20053;-76
2023/11/28 01:20:32;;;;;;;6.65;3.00;;;;;;;2.88;100.00;98552.75;6177288;28;20078;-74
2023/11/28 01:23:33;;;;;;;4.32;2.45;;;;;;;2.85;100.00;98548.59;6175216;28;20079;-74
2023/11/28 01:26:34;;;;;;;7.60;2.88;;;;;;;2.96;100.00;98545.44;6190607;28;20483;-77
2023/11/28 01:29:35;;;;;;;5.13;2.58;;;;;;;2.97;100.00;98541.97;6176206;28;20395;-75
2023/11/28 01:32:36;;;;;;;5.85;2.17;;;;;;;2.67;100.00;98540.09;6177258;28;20059;-74
2023/11/28 01:35:38;;;;;;;3.80;2.42;;;;;;;2.77;100.00;98543.03;6177664;28;20051;-74
2023/11/28 01:38:39;;;;;;;;;;;;;;;2.93;100.00;98525.00;6165421;28;20043;-74
2023/11/28 01:41:41;;;;;;;6.00;2.35;;;;;;;2.81;100.00;98514.44;6185012;28;19922;-75
2023/11/28 01:44:43;;;;;;;4.38;2.15;;;;;;;2.82;100.00;98516.13;6175150;28;20086;-74
2023/11/28 01:47:44;;;;;;;4.40;2.60;;;;;;;2.86;100.00;98518.50;6175824;28;20061;-77
2023/11/28 01:50:47;;;;;;;2.78;1.88;;;;;;;2.81;100.00;98505.88;6177091;28;20070;-77
2023/11/28 01:53:56;;;;;;;1.92;1.58;;;;;;;2.86;100.00;98493.56;6177330;28;20074;-74
2023/11/28 01:56:57;;;;;;;4.18;2.25;;;;;;;2.95;100.00;98476.81;6174156;28;20051;-74
2023/11/28 02:00:00;;;;;;;3.65;2.35;;;;;;;3.14;100.00;98471.47;6152917;28;20561;-75
2023/11/28 02:03:05;;;;;;;6.30;2.53;;;;;;;3.07;100.00;98458.09;6153357;28;20047;-77
2023/11/28 02:06:08;;;;;;;4.13;2.45;;;;;;;3.06;100.00;98453.03;6156483;28;20151;-78
2023/11/28 02:09:12;;;;;;;2.70;1.88;;;;;;;2.91;100.00;98440.06;6162834;28;20402;-77
2023/11/28 02:12:13;;;;;;;4.15;2.30;;;;;;;3.09;100.00;98443.38;6166895;28;20146;-77
2023/11/28 02:15:17;;;;;;;7.60;3.13;;;;;;;3.10;100.00;98434.72;6151834;29;20058;-76
2023/11/28 02:18:17;;;;;;;3.58;2.47;;;;;;;3.09;100.00;98422.75;6152347;29;20463;-74
2023/11/28 02:21:19;;;;;;;7.60;3.10;;;;;;;3.20;100.00;98424.72;6167778;28;20059;-77
2023/11/28 02:24:21;;;;;;;7.43;3.00;;;;;;;3.14;100.00;98415.59;6152641;28;20473;-77
2023/11/28 02:27:25;;;;;;;2.80;2.10;;;;;;;3.16;100.00;98403.44;6151606;29;20065;-77
2023/11/28 02:30:26;;;;;;;4.78;2.55;;;;;;;3.28;100.00;98403.66;6152239;28;20078;-74
2023/11/28 02:33:27;;;;;;;5.30;2.50;;;;;;;3.19;100.00;98392.13;6188511;28;20051;-77
2023/11/28 02:36:29;;;;;;;4.40;2.58;;;;;;;3.26;100.00;98385.72;6172122;28;20054;-74
2023/11/28 02:39:30;;;;;;;2.22;1.98;;;;;;;3.20;100.00;98378.31;6167711;28;20146;-74
2023/11/28 02:42:31;;;;;;;6.78;2.92;;;;;;;3.16;100.00;98359.63;6157671;28;20061;-74
2023/11/28 02:45:32;;;;;;;4.30;2.20;;;;;;;3.33;100.00;98373.28;6160832;28;20553;-74
2023/11/28 02:48:33;;;;;;;6.18;1.63;;;;;;;3.35;100.00;98366.28;6175408;28;20135;-75
2023/11/28 02:51:34;;;;;;;2.58;1.83;;;;;;;3.23;100.00;98352.34;6191355;28;20130;-77
2023/11/28 02:54:35;;;;;;;3.75;2.33;;;;;;;3.35;100.00;98343.91;6175785;28;20151;-77
2023/11/28 02:57:36;;;;;;;3.83;1.95;;;;;;;3.34;100.00;98323.41;6174289;28;20486;-77
2023/11/28 03:00:37;;;;;;;2.50;1.77;;;;;;;3.38;100.00;98345.50;6174390;28;20104;-75
2023/11/28 03:03:38;;;;;;;3.10;2.20;;;;;;;3.47;100.00;98323.50;6164276;28;20133;-77
2023/11/28 03:06:39;;;;;;;2.95;2.15;;;;;;;3.45;100.00;98320.19;6166576;28;20047;-77
2023/11/28 03:09:42;;;;;;;3.75;2.05;;;;;;;3.37;100.00;98315.47;6151491;28;20054;-77
2023/11/28 03:12:43;;;;;;;3.20;2.20;;;;;;;3.51;100.00;98314.66;6151646;28;20051;-77
2023/11/28 03:15:44;;;;;;;2.85;1.85;;;;;;;3.38;100.00;98311.97;6166149;28;20059;-77
2023/11/28 03:18:45;;;;;;;3.25;2.40;;;;;;;3.47;100.00;98310.59;6172864;28;20134;-74
2023/11/28 03:21:46;;;;;;;3.15;2.05;;;;;;;3.45;100.00;98302.13;6173152;28;20061;-76
2023/11/28 03:24:47;;;;;;;3.00;2.10;;;;;;;3.32;100.00;98292.53;6165722;28;20051;-77
2023/11/28 03:27:48;;;;;;;2.53;1.90;;;;;;;3.53;100.00;98293.00;6159584;28;20046;-77
2023/11/28 03:30:48;;;;;;;3.30;2.42;;;;;;;3.57;100.00;98297.06;6174903;28;20439;-74
2023/11/28 03:33:49;;;;;;;2.28;1.90;;;;;;;3.37;100.00;98308.56;6174487;28;20054;-78
2023/11/28 03:36:50;;;;;;;4.55;1.85;;;;;;;3.48;100.00;98287.31;6183013;28;20437;-77
2023/11/28 03:39:51;;;;;;;4.30;2.50;;;;;;;3.60;100.00;98288.31;6151721;28;20142;-77
2023/11/28 03:42:52;;;;;;;2.42;1.58;;;;;;;3.43;100.00;98277.25;6171877;28;20076;-74
2023/11/28 03:45:53;;;;;;;2.50;1.73;;;;;;;3.43;100.00;98272.09;6177527;28;20057;-77
2023/11/28 03:48:54;;;;;;;2.83;2.13;;;;;;;3.47;100.00;98256.44;6186750;28;20082;-77
2023/11/28 03:51:55;;;;;;;3.65;1.98;;;;;;;3.29;100.00;98242.91;6162488;28;20046;-77
2023/11/28 03:54:56;;;;;;;2.80;1.92;;;;;;;3.36;100.00;98244.22;6179846;28;20057;-77
2023/11/28 03:57:57;;;;;;;3.33;1.55;;;;;;;3.36;100.00;98245.03;6185353;28;20047;-75
2023/11/28 04:00:58;;;;;;;3.25;1.88;;;;;;;3.52;100.00;98247.53;6178218;28;20054;-77
2023/11/28 04:03:59;;;;;;;2.50;1.73;;;;;;;3.40;100.00;98225.06;6193752;28;20512;-75
2023/11/28 04:07:02;;;;;;;2.88;1.92;;;;;;;3.43;100.00;98214.56;6188861;28;20046;-77
2023/11/28 04:10:03;;;;;;;4.70;1.80;;;;;;;3.52;100.00;98215.72;6161829;28;20055;-75
2023/11/28 04:13:05;;;;;;;3.95;2.05;;;;;;;3.43;100.00;98201.66;6173747;28;20489;-74
2023/11/28 04:16:06;;;;;;;3.20;1.67;;;;;;;3.54;100.00;98196.69;6198549;28;20050;-77
2023/11/28 04:19:07;;;;;;;2.40;1.35;;;;;;;3.37;100.00;98182.22;6198164;28;20133;-74
2023/11/28 04:22:10;;;;;;;2.30;1.52;;;;;;;3.37;100.00;98177.06;6182049;28;20060;-77
2023/11/28 04:25:11;;;;;;;2.60;1.63;;;;;;;3.53;100.00;98186.44;6172229;28;20055;-74
2023/11/28 04:28:13;;;;;;;3.80;2.13;;;;;;;3.37;100.00;98171.91;6180616;28;20456;-77
2023/11/28 04:31:20;;;;;;;1.55;1.23;;;;;;;3.48;100.00;98167.84;6173547;28;20082;-77
2023/11/28 04:34:22;;;;;;;3.28;1.98;;;;;;;3.60;100.00;98156.75;6172622;28;20049;-77
2023/11/28 04:37:23;;;;;;;4.80;2.28;;;;;;;3.53;100.00;98150.34;6170981;28;20492;-77
2023/11/28 04:40:24;;;;;;;8.80;4.50;;;;;;;3.47;100.00;98143.00;6174084;28;21091;-77
2023/11/28 04:43:27;;;;;;;1.60;1.45;;;;;;;3.50;100.00;98132.47;6174842;28;20193;-77
2023/11/28 04:46:30;;;;;;;3.42;2.00;;;;;;;3.65;100.00;98133.28;6191635;28;20046;-77
2023/11/28 04:49:33;;;;;;;4.50;1.65;;;;;;;3.63;100.00;98120.47;6165025;28;20507;-74
2023/11/28 04:52:34;;;;;;;1.80;1.50;;;;;;;3.74;100.00;98106.91;6164142;28;20051;-74
2023/11/28 04:55:37;;;;;;;2.33;1.88;;;;;;;3.52;100.00;98105.69;6185968;28;20054;-75
2023/11/28 04:58:41;;;;;;;3.45;2.45;;;;;;;3.62;100.00;98117.09;6169707;28;20049;-74
2023/11/28 05:01:47;;;;;;;3.03;1.75;;;;;;;3.60;100.00;98111.19;6171906;28;21036;-74
2023/11/28 05:04:50;;;;;;;2.55;1.80;;;;;;;3.72;100.00;98103.59;6161300;28;20054;-77
2023/11/28 05:07:51;;;;;;;4.60;2.20;;;;;;;3.80;100.00;98096.19;6166706;28;20145;-77
2023/11/28 05:10:54;;;;;;;5.68;3.10;;;;;;;3.67;100.00;98092.75;6165582;28;20055;-76
2023/11/28 05:13:56;;;;;;;3.17;1.85;;;;;;;3.79;100.00;98097.13;6174377;28;20065;-77
2023/11/28 05:16:57;;;;;;;4.93;2.47;;;;;;;3.72;100.00;98085.53;6176879;28;20548;-77
2023/11/28 05:20:01;;;;;;;2.40;1.80;;;;;;;3.89;100.00;98087.88;6176790;28;20050;-74
2023/11/28 05:23:02;;;;;;;1.95;1.50;;;;;;;3.91;99.16;98075.69;6178032;28;20083;-75
2023/11/28 05:26:07;;;;;;;2.40;1.38;;;;;;;3.88;98.11;98069.91;6197040;28;20084;-74
2023/11/28 05:29:08;;;;;;;2.60;1.65;;;;;;;3.98;98.46;98065.78;6201812;28;20146;-74
2023/11/28 05:32:09;;;;;;;2.45;1.65;;;;;;;4.06;97.42;98081.59;6201596;28;20057;-75
2023/11/28 05:35:10;;;;;;;3.10;1.75;;;;;;;4.04;97.34;98078.28;6200004;28;20054;-74
2023/11/28 05:38:11;;;;;;;4.25;1.92;;;;;;;4.01;96.66;98066.38;6201897;28;20533;-77
2023/11/28 05:41:12;;;;;;;2.42;1.48;;;;;;;4.03;96.70;98061.94;6200996;28;20054;-77
2023/11/28 05:44:15;;;;;;;2.70;2.03;;;;;;;4.11;96.70;98069.19;6187427;28;20061;-74
2023/11/28 05:47:16;;;;;;;1.73;1.38;;;;;;;4.14;97.03;98055.25;6195422;28;20053;-77
2023/11/28 05:50:17;;;;;;;2.60;1.80;;;;;;;3.98;97.16;98053.69;6200410;28;20552;-74
2023/11/28 05:53:20;;;;;;;1.60;1.42;;;;;;;4.08;96.79;98037.59;6198704;28;20050;-77
2023/11/28 05:56:21;;;;;;;5.18;2.53;;;;;;;3.97;97.23;98036.56;6197696;28;20814;-74
2023/11/28 05:59:24;;;;;;;2.25;1.65;;;;;;;3.88;98.12;98026.03;6197316;28;20050;-74
2023/11/28 06:02:25;;;;;;;1.55;1.25;;;;;;;3.87;97.76;98030.38;6197505;28;20054;-74
2023/11/28 06:05:31;;;;;;;4.10;2.00;;;;;;;3.91;97.50;98023.22;6199723;28;20069;-75
2023/11/28 06:08:34;;;;;;;2.97;1.77;;;;;;;3.96;97.31;98027.16;6199110;28;20051;-77
2023/11/28 06:11:35;;;;;;;1.77;1.20;;;;;;;3.95;96.85;98028.09;6199242;28;20050;-77
2023/11/28 06:14:37;;;;;;;4.32;2.10;;;;;;;3.94;97.22;98004.97;6200018;28;20101;-74
2023/11/28 06:17:40;;;;;;;3.47;2.08;;;;;;;4.03;96.65;98018.09;6198758;28;20054;-78
2023/11/28 06:20:41;;;;;;;1.77;1.40;;;;;;;3.99;96.39;98011.47;6198423;28;20054;-77
2023/11/28 06:23:42;;;;;;;2.55;1.27;;;;;;;4.08;96.46;98014.38;6199984;28;20063;-74
2023/11/28 06:26:46;;;;;;;1.85;1.40;;;;;;;3.96;96.41;98003.13;6198358;28;20058;-75
2023/11/28 06:29:48;;;;;;;2.22;1.35;;;;;;;4.06;95.94;98003.31;6198722;28;20047;-77
2023/11/28 06:32:49;;;;;;;2.80;1.80;;;;;;;4.06;95.73;98005.91;6198512;28;20105;-77
2023/11/28 06:35:52;;;;;;;1.60;1.35;;;;;;;4.08;95.71;97996.28;6199914;28;20054;-75
2023/11/28 06:38:55;;;;;;;1.95;1.08;;;;;;;4.01;94.83;97986.38;6198335;28;20096;-77
2023/11/28 06:41:56;;;;;;;2.42;1.55;;;;;;;4.23;94.90;97992.69;6198264;28;20510;-77
2023/11/28 06:44:57;;;;;;;7.72;1.33;;;;;;;4.03;94.37;97991.44;6199468;28;20055;-74
2023/11/28 06:47:58;;;;;;;2.20;1.50;;;;;;;4.11;94.09;97988.38;6197806;28;20057;-74
2023/11/28 06:51:02;;;;;;;9.05;3.58;;;;;;;4.26;93.62;97979.56;6199061;28;20082;-74
2023/11/28 06:54:05;;;;;;;4.15;2.42;;;;;;;4.21;93.58;97986.81;6198089;28;20330;-74
2023/11/28 06:57:06;;;;;;;36.13;16.63;;;;;;;4.20;92.33;97985.16;6198119;28;20050;-77
2023/11/28 07:00:08;;;;;;;35.55;15.43;;;;;;;4.28;92.63;97979.47;6198316;28;20050;-73
2023/11/28 07:03:10;;;;;;;16.10;7.85;;;;;;;4.12;92.86;97979.69;6197761;28;20417;-77
2023/11/28 07:06:11;;;;;;;14.77;8.18;;;;;;;4.31;92.31;97976.69;6198669;28;20076;-77
2023/11/28 07:09:11;;;;;;;4.82;2.65;;;;;;;4.13;91.84;97973.59;6197710;28;20486;-74
2023/11/28 07:12:12;;;;;;;5.97;3.67;;;;;;;4.29;91.46;97974.22;6197419;28;20053;-77
2023/11/28 07:15:16;;;;;;;2.20;1.70;;;;;;;4.30;91.99;97986.19;6197378;28;20058;-74
2023/11/28 07:18:20;;;;;;;2.58;1.55;;;;;;;4.41;92.66;97980.31;6197141;28;20042;-74
2023/11/28 07:21:21;;;;;;;2.67;2.00;;;;;;;4.29;91.92;97976.78;6198281;28;20537;-77
2023/11/28 07:24:22;;;;;;;5.95;2.28;;;;;;;4.29;92.43;97973.41;6198189;28;20421;-74
2023/11/28 07:27:25;;;;;;;15.27;2.78;;;;;;;4.31;93.10;97977.50;6198449;28;20064;-77
2023/11/28 07:30:26;;;;;;;4.72;2.35;;;;;;;4.38;93.43;97977.91;6197070;28;20501;-73
2023/11/28 07:33:27;;;;;;;5.28;3.00;;;;;;;4.43;93.60;97978.44;6197749;28;20050;-74
2023/11/28 07:36:27;;;;;;;3.75;2.03;;;;;;;4.44;93.92;97973.16;6196808;28;20046;-77
2023/11/28 07:39:32;;;;;;;3.53;2.10;;;;;;;4.30;93.91;97975.03;6196511;28;20054;-74
2023/11/28 07:42:33;;;;;;;9.10;2.20;;;;;;;4.26;94.35;97976.97;6198207;28;20089;-74
2023/11/28 07:45:35;;;;;;;3.15;2.33;;;;;;;4.46;94.56;97972.22;6196502;28;20386;-77
2023/11/28 07:48:38;;;;;;;;;;;;;;;4.48;94.63;97968.59;6198217;28;20417;-75
2023/11/28 07:51:41;;;;;;;2.90;1.90;;;;;;;4.45;94.13;97966.25;6197603;28;19922;-77
2023/11/28 07:54:43;;;;;;;4.30;2.15;;;;;;;4.44;94.17;97949.91;6198210;28;20058;-77
2023/11/28 07:57:44;;;;;;;4.25;1.80;;;;;;;4.52;94.20;97945.97;6196420;28;20050;-78
2023/11/28 08:00:45;;;;;;;7.32;2.42;;;;;;;4.53;94.42;97947.63;6196670;28;20085;-78
2023/11/28 08:03:50;;;;;;;3.85;2.60;;;;;;;4.49;94.47;97944.44;6197967;28;20448;-77
2023/11/28 08:06:52;;;;;;;2.42;1.83;;;;;;;4.54;94.15;97944.13;6197663;28;20050;-78
2023/11/28 08:09:53;;;;;;;5.22;2.10;;;;;;;4.56;93.05;97942.25;6196044;28;20587;-74
2023/11/28 08:12:55;;;;;;;4.63;2.88;;;;;;;4.63;92.93;97930.53;6196927;28;20527;-73
2023/11/28 08:15:58;;;;;;;5.32;1.95;;;;;;;4.79;93.29;97927.69;6197659;28;20050;-77
2023/11/28 08:18:59;;;;;;;4.85;2.75;;;;;;;4.84;92.88;97920.47;6197274;28;20043;-75
2023/11/28 08:22:00;;;;;;;5.72;2.55;;;;;;;4.95;92.45;97920.50;6195893;28;20421;-74
2023/11/28 08:25:01;;;;;;;5.90;2.20;;;;;;;4.81;92.26;97916.31;6197171;28;20054;-74
2023/11/28 08:28:02;;;;;;;2.35;1.73;;;;;;;4.83;92.47;97916.22;6196165;28;20533;-78
2023/11/28 08:31:03;;;;;;;5.78;1.98;;;;;;;4.87;91.98;97922.81;6196016;28;20350;-78
2023/11/28 08:34:04;;;;;;;4.28;2.33;;;;;;;5.00;91.66;97918.44;6197190;28;20054;-78
2023/11/28 08:37:05;;;;;;;4.10;2.20;;;;;;;5.00;91.95;97922.75;6196505;28;20421;-78
2023/11/28 08:40:07;;;;;;;4.57;2.30;;;;;;;5.13;91.75;97928.69;6197375;28;20042;-74
2023/11/28 08:43:09;;;;;;;3.95;2.03;;;;;;;5.13;91.62;97918.34;6197178;28;20086;-74
2023/11/28 08:46:14;;;;;;;2.65;1.98;;;;;;;5.20;91.33;97923.91;6196960;28;20133;-74
2023/11/28 08:49:15;;;;;;;4.22;2.03;;;;;;;5.20;91.42;97914.38;6196832;28;20061;-77
2023/11/28 08:52:17;;;;;;;4.93;1.83;;;;;;;5.23;91.76;97914.16;6196957;28;20054;-77
2023/11/28 08:55:18;;;;;;;3.13;1.77;;;;;;;5.06;92.87;97906.78;6195860;28;20486;-74
2023/11/28 08:58:19;;;;;;;1.67;1.55;;;;;;;5.08;93.21;97891.19;6195584;28;20129;-74
2023/11/28 09:01:20;;;;;;;4.65;2.13;;;;;;;5.15;93.52;97890.63;6195780;28;20097;-78
2023/11/28 09:04:21;;;;;;;2.33;1.58;;;;;;;5.27;93.41;97888.88;6195757;28;20063;-77
2023/11/28 09:07:22;;;;;;;4.28;2.58;;;;;;;5.32;92.97;97888.56;6195366;28;20405;-74
2023/11/28 09:10:23;;;;;;;4.78;2.72;;;;;;;5.30;93.24;97877.50;6195819;28;20086;-74
2023/11/28 09:13:24;;;;;;;2.70;1.83;;;;;;;5.37;93.02;97865.75;6195400;28;20050;-74
2023/11/28 09:16:28;;;;;;;5.03;2.20;;;;;;;5.32;93.69;97865.28;6196997;28;20086;-74
2023/11/28 09:19:29;;;;;;;7.18;2.72;;;;;;;5.25;93.44;97859.75;6197162;28;20053;-77
2023/11/28 09:22:30;;;;;;;6.45;2.55;;;;;;;5.29;94.45;97860.34;6198856;28;20054;-78
2023/11/28 09:25:33;;;;;;;5.82;2.70;;;;;;;5.34;94.26;97848.72;6200046;28;20081;-73
2023/11/28 09:28:38;;;;;;;3.63;2.15;;;;;;;5.37;93.27;97847.66;6199732;28;20416;-77
2023/11/28 09:31:39;;;;;;;2.65;1.60;;;;;;;5.42;93.43;97841.22;6200089;28;20560;-77
2023/11/28 09:34:43;;;;;;;4.43;1.95;;;;;;;5.28;94.05;97832.84;6199718;28;20095;-77
2023/11/28 09:37:44;;;;;;;4.35;2.22;;;;;;;5.31;94.22;97828.25;6200631;28;20073;-74
2023/11/28 09:40:46;;;;;;;6.40;2.60;;;;;;;5.32;94.66;97816.16;6199569;28;20046;-73
2023/11/28 09:43:48;;;;;;;14.27;4.85;;;;;;;5.31;95.44;97807.56;6199489;28;20680;-74
2023/11/28 09:46:51;;;;;;;14.57;4.70;;;;;;;5.29;95.59;97803.44;6199137;28;20448;-74
2023/11/28 09:49:56;;;;;;;19.05;5.07;;;;;;;5.52;94.29;97792.19;6200195;28;20486;-74
2023/11/28 09:52:57;;;;;;;18.40;5.63;;;;;;;5.51;94.06;97793.13;6200316;28;20057;-74
2023/11/28 09:56:03;;;;;;;13.52;4.90;;;;;;;5.64;94.00;97777.47;6199263;28;20495;-77
2023/11/28 09:59:11;;;;;;;8.32;2.45;;;;;;;5.56;93.92;97772.91;6200213;28;20042;-77
2023/11/28 10:02:14;;;;;;;9.50;2.92;;;;;;;5.74;93.96;97778.41;6200925;28;20474;-77
2023/11/28 10:05:16;;;;;;;10.75;3.92;;;;;;;5.71;93.86;97763.16;6200327;28;20058;-77
2023/11/28 10:08:21;;;;;;;13.00;6.13;;;;;;;5.67;95.69;97760.91;6199272;28;20046;-78
2023/11/28 10:11:25;;;;;;;13.27;6.63;;;;;;;5.73;95.51;97747.50;6199806;28;20817;-74
2023/11/28 10:14:28;;;;;;;12.25;6.45;;;;;;;5.59;96.27;97753.75;6198511;28;20497;-74
2023/11/28 10:17:35;;;;;;;10.25;5.68;;;;;;;5.56;96.48;97736.72;6199833;28;20081;-74
2023/11/28 10:20:38;;;;;;;12.38;6.05;;;;;;;5.55;96.59;97737.63;6199837;28;20057;-74
2023/11/28 10:23:44;;;;;;;10.20;5.68;;;;;;;5.53;97.10;97725.75;6199474;28;20050;-74
2023/11/28 10:26:45;;;;;;;8.95;5.60;;;;;;;5.41;97.45;97722.34;6199519;28;20493;-77
2023/11/28 10:29:46;;;;;;;10.53;5.43;;;;;;;5.28;98.59;97717.31;6198193;28;20149;-76
2023/11/28 10:32:48;;;;;;;13.85;6.55;;;;;;;5.33;98.78;97717.75;6197927;28;20055;-74
2023/11/28 10:35:49;;;;;;;10.57;6.65;;;;;;;5.36;98.05;97714.13;6198045;28;20046;-74
2023/11/28 10:38:53;;;;;;;16.88;7.55;;;;;;;5.34;98.11;97708.25;6197808;28;20474;-77
2023/11/28 10:41:55;;;;;;;11.07;7.00;;;;;;;5.21;97.96;97705.81;6198273;28;20065;-74
2023/11/28 10:44:58;;;;;;;16.65;8.25;;;;;;;5.24;99.04;97696.03;6197704;28;20141;-74
2023/11/28 10:47:59;;;;;;;21.33;9.73;;;;;;;5.33;99.18;97694.50;6199385;28;20090;-77
2023/11/28 10:51:01;;;;;;;17.90;9.30;;;;;;;5.33;99.88;97683.31;6199226;28;20152;-77
2023/11/28 10:54:07;;;;;;;14.73;8.68;;;;;;;5.37;100.00;97674.41;6198018;28;20050;-75
2023/11/28 10:57:17;;;;;;;20.05;9.63;;;;;;;5.39;100.00;97668.16;6198761;28;20046;-74
2023/11/28 11:00:24;;;;;;;13.70;8.27;;;;;;;5.42;100.00;97667.94;6197380;28;20069;-75
2023/11/28 11:03:26;;;;;;;24.55;13.27;;;;;;;5.49;100.00;97665.69;6198998;28;20054;-78
2023/11/28 11:06:27;;;;;;;30.08;15.27;;;;;;;5.49;100.00;97665.69;6198894;28;20054;-75
2023/11/28 11:09:29;;;;;;;41.33;20.55;;;;;;;5.60;100.00;97664.81;6197416;28;20512;-75
2023/11/28 11:12:32;;;;;;;30.50;16.43;;;;;;;5.68;100.00;97664.25;6197484;28;20493;-79
2023/11/28 11:16:05;;;;;;;18.52;9.57;;;;;;;5.71;100.00;97656.25;6197307;28;20484;-78
2023/11/28 11:19:09;;;;;;;15.05;8.93;;;;;;;5.78;100.00;97657.38;6194976;28;20047;-78
2023/11/28 11:22:13;;;;;;;18.42;9.15;;;;;;;5.81;100.00;97647.63;6198533;28;20050;-78
2023/11/28 11:25:14;;;;;;;15.38;9.02;;;;;;;5.87;100.00;97648.91;6197056;28;20425;-75
2023/11/28 11:28:15;;;;;;;30.98;14.55;;;;;;;5.92;100.00;97649.34;6196913;28;20046;-75
2023/11/28 11:31:18;;;;;;;23.65;12.88;;;;;;;5.98;100.00;97641.13;6196897;28;20085;-78
2023/11/28 11:34:40;;;;;;;19.08;9.85;;;;;;;6.05;100.00;97649.22;6198082;28;20062;-74
2023/11/28 11:37:42;;;;;;;30.40;12.10;;;;;;;6.01;100.00;97643.47;6196884;28;20185;-75
2023/11/28 11:40:48;;;;;;;34.83;14.02;;;;;;;6.07;100.00;97649.09;6197852;28;20065;-74
2023/11/28 11:43:55;;;;;;;21.15;9.57;;;;;;;5.90;100.00;97648.66;6197951;28;20054;-78
2023/11/28 11:47:11;;;;;;;8.35;4.75;;;;;;;5.90;100.00;97655.59;6196492;28;20111;-75
2023/11/28 11:50:19;;;;;;;5.97;3.45;;;;;;;6.10;100.00;97643.69;6198031;28;20042;-78
2023/11/28 11:53:20;;;;;;;6.90;2.70;;;;;;;6.03;100.00;97638.16;6197806;28;20101;-78
2023/11/28 11:56:23;;;;;;;5.32;2.63;;;;;;;6.03;100.00;97640.75;6196568;28;20089;-78
2023/11/28 11:59:27;;;;;;;3.85;2.53;;;;;;;6.09;100.00;97640.25;6197555;28;20114;-75
2023/11/28 12:02:43;;;;;;;11.00;3.03;;;;;;;6.13;100.00;97651.19;6197918;28;20050;-78
2023/11/28 12:05:59;;;;;;;2.65;1.73;;;;;;;5.93;100.00;97643.25;6196572;28;20093;-79
2023/11/28 12:09:04;;;;;;;4.53;2.42;;;;;;;6.03;100.00;97638.16;6197991;28;20046;-78
2023/11/28 12:12:08;;;;;;;2.95;2.10;;;;;;;5.94;100.00;97639.69;6197914;28;20046;-74
2023/11/28 12:15:10;;;;;;;5.20;3.17;;;;;;;5.92;100.00;97644.16;6197362;28;20054;-74
2023/11/28 12:18:12;;;;;;;6.57;2.90;;;;;;;5.96;100.00;97643.00;6197168;28;20490;-78
2023/11/28 12:21:13;;;;;;;3.28;2.47;;;;;;;6.03;100.00;97640.75;6196217;28;20073;-77
2023/11/28 12:24:16;;;;;;;4.43;2.47;;;;;;;6.00;100.00;97636.63;6196329;28;20505;-74
2023/11/28 12:27:20;;;;;;;5.15;2.58;;;;;;;5.89;100.00;97641.84;6195804;28;20196;-75
2023/11/28 12:30:22;;;;;;;5.63;2.97;;;;;;;5.83;100.00;97637.16;6197573;28;20397;-75
2023/11/28 12:33:23;;;;;;;4.38;2.85;;;;;;;5.89;100.00;97646.19;6196008;28;20130;-75
2023/11/28 12:36:27;;;;;;;3.40;2.33;;;;;;;6.01;100.00;97640.03;6197142;28;20109;-78
2023/11/28 12:39:29;;;;;;;3.88;2.63;;;;;;;5.96;100.00;97640.41;6195837;28;20050;-79
2023/11/28 12:42:30;;;;;;;5.20;2.60;;;;;;;6.04;100.00;97648.41;6195915;28;20498;-78
2023/11/28 12:45:32;;;;;;;3.67;2.35;;;;;;;6.00;100.00;97636.63;6195872;28;20287;-79
2023/11/28 12:48:34;;;;;;;4.07;2.53;;;;;;;5.92;100.00;97643.34;6197054;28;20110;-78
2023/11/28 12:51:36;;;;;;;4.05;2.58;;;;;;;6.01;100.00;97637.44;6197263;28;20050;-76
2023/11/28 12:54:41;;;;;;;8.23;3.10;;;;;;;6.01;100.00;97642.63;6197043;28;20077;-76
2023/11/28 12:57:42;;;;;;;8.90;2.92;;;;;;;5.98;100.00;97635.13;6197965;28;20413;-75
2023/11/28 13:00:45;;;;;;;3.72;2.45;;;;;;;5.94;100.00;97629.34;6200440;28;20050;-75
2023/11/28 13:03:48;;;;;;;2.75;1.98;;;;;;;5.94;100.00;97642.28;6200567;28;20050;-75
2023/11/28 13:06:50;;;;;;;3.42;2.17;;;;;;;5.87;100.00;97641.16;6201271;28;20050;-75
2023/11/28 13:09:51;;;;;;;3.92;2.42;;;;;;;5.97;100.00;97639.50;6200262;28;20053;-76
2023/11/28 13:12:55;;;;;;;3.10;1.90;;;;;;;6.03;100.00;97641.59;6201201;28;20468;-75
2023/11/28 13:15:56;;;;;;;3.75;2.30;;;;;;;6.01;100.00;97640.88;6200299;28;20104;-79
2023/11/28 13:18:57;;;;;;;3.80;1.95;;;;;;;6.01;100.00;97648.66;6201262;28;20714;-79
2023/11/28 13:21:58;;;;;;;2.80;2.03;;;;;;;5.85;100.00;97646.44;6200236;28;20050;-79
2023/11/28 13:24:58;;;;;;;3.22;1.67;;;;;;;5.83;100.00;97643.16;6200064;28;20046;-79
2023/11/28 13:28:01;;;;;;;5.45;2.05;;;;;;;6.05;100.00;97641.44;6201252;28;20050;-79
2023/11/28 13:31:02;;;;;;;;;;;;;;;5.92;100.00;97644.16;6201530;28;20054;-78
2023/11/28 13:34:04;;;;;;;3.58;2.40;;;;;;;5.84;100.00;97644.78;6201375;28;19972;-78
2023/11/28 13:37:06;;;;;;;3.58;2.70;;;;;;;5.86;100.00;97637.72;6200220;28;20054;-79
2023/11/28 13:40:11;;;;;;;9.48;3.85;;;;;;;6.03;100.00;97638.16;6199556;28;20050;-78
2023/11/28 13:43:11;;;;;;;9.60;4.90;;;;;;;6.00;100.00;97643.59;6199722;28;20054;-78
2023/11/28 13:46:12;;;;;;;32.45;9.50;;;;;;;5.82;100.00;97638.91;6199512;28;20517;-79
2023/11/28 13:49:14;;;;;;;35.92;10.93;;;;;;;5.91;100.00;97646.88;6200587;28;20514;-79
2023/11/28 13:52:15;;;;;;;33.42;11.65;;;;;;;5.80;100.00;97642.56;6200566;28;20054;-78
2023/11/28 13:55:21;;;;;;;29.67;13.35;;;;;;;5.87;100.00;97643.72;6200436;28;20058;-74
2023/11/28 13:58:23;;;;;;;24.83;8.50;;;;;;;6.00;100.00;97647.00;6196519;28;20129;-74
2023/11/28 14:01:24;;;;;;;27.50;11.63;;;;;;;5.88;100.00;97640.19;6163720;28;20460;-79
2023/11/28 14:04:26;;;;;;;23.08;10.00;;;;;;;5.85;100.00;97648.22;6161431;28;20122;-79
2023/11/28 14:07:27;;;;;;;16.63;7.07;;;;;;;5.78;100.00;97636.69;6160635;28;20051;-79
2023/11/28 14:10:30;;;;;;;13.68;5.18;;;;;;;5.86;100.00;97647.25;6179292;28;20053;-79
2023/11/28 14:13:30;;;;;;;9.95;4.55;;;;;;;5.97;100.00;97641.25;6166043;28;20502;-79
2023/11/28 14:16:32;;;;;;;7.93;4.10;;;;;;;5.94;100.00;97626.75;6151548;28;20055;-74
2023/11/28 14:19:32;;;;;;;6.72;3.53;;;;;;;5.89;100.00;97628.91;6170522;28;20043;-74
2023/11/28 14:22:34;;;;;;;5.30;3.13;;;;;;;5.86;100.00;97629.13;6160083;28;20073;-75